Hauptseite
METAR-TAF:

METAR-TAF

Flughäfen :

Lydd, England

Breite: 50-57N, Länge: 000-56E, Höhe: 3 m

Beobachtung

Neuester Wetterbericht von vor 12 Minuten, um 04:20 UTC
Wind 10 kt aus Süd
Temperatur 8°C
Luftfeuchtigkeit 93%
Luftdruck 1018 hPa
Sichtweite 10 km oder mehr

METAR: EGMD 170420Z AUTO 17010KT 9999 NCD 08/07 Q1018

Zeit: 04:32 (04:32 UTC)

Prognose

Neuester Wetterbericht von vor 2 Stunden und 30 Minuten, um 02:02 UTC
Gültige Prognose vom 17 um 03 UTC bis 17 um 12 UTC
Wind 5 kt aus Süd
Sichtweite 10 km oder mehr
keine Wolken unter 1500 m und keine Kumulonimbus oder Gewitterwolken
Übergehend zu
vom 17 um 06 UTC bis 17 um 09 UTC
Wind 15 kt aus Süd

TAF: EGMD 170202Z 1703/1712 19005KT CAVOK BECMG 1706/1709 19015KT

Wetterbeobachtungen und Prognosen von mehr als 4000 Flughäfen (METAR und TAF Bericht).

Die verfügbaren Stationen werden durch gelbe und rote Markierungen auf der Karte dargestellt.

Führen Sie die Maus auf sie, um den Namen der Station zu sehen.

Darauf klicken, um die Beobachtung von Wetterbeobachtungen und Prognosen zu sehen.

Um die Karte zu ändern : klicken Sie auf den grünen Tasten mit einem schwarzen Kreuz Zum Vergrößern, auf den grünen Button mit einem Gedankenstrich zu verkleinern, oder auf die grünen Pfeile für benachbarte Karten.


METAR-TAF: